sensor_id;sensor_type;location;lat;lon;timestamp;P1;durP1;ratioP1;P2;durP2;ratioP2
9234;SDS011;4652;42.716;23.218;2023-02-28T00:03:09;24.30;;;16.80;;
9234;SDS011;4652;42.716;23.218;2023-02-28T00:09:53;24.20;;;16.33;;
9234;SDS011;4652;42.716;23.218;2023-02-28T00:16:35;37.97;;;21.20;;
9234;SDS011;4652;42.716;23.218;2023-02-28T00:23:17;29.63;;;17.87;;
9234;SDS011;4652;42.716;23.218;2023-02-28T00:30:00;36.80;;;21.63;;
9234;SDS011;4652;42.716;23.218;2023-02-28T00:36:42;34.33;;;20.87;;
9234;SDS011;4652;42.716;23.218;2023-02-28T00:43:26;26.27;;;15.13;;
9234;SDS011;4652;42.716;23.218;2023-02-28T00:50:10;24.07;;;14.00;;
9234;SDS011;4652;42.716;23.218;2023-02-28T00:56:52;24.70;;;15.20;;
9234;SDS011;4652;42.716;23.218;2023-02-28T01:03:34;22.30;;;15.37;;
9234;SDS011;4652;42.716;23.218;2023-02-28T01:10:18;25.17;;;15.30;;
9234;SDS011;4652;42.716;23.218;2023-02-28T01:17:01;23.63;;;15.23;;
9234;SDS011;4652;42.716;23.218;2023-02-28T01:23:43;20.87;;;13.53;;
9234;SDS011;4652;42.716;23.218;2023-02-28T01:30:27;24.87;;;15.73;;
9234;SDS011;4652;42.716;23.218;2023-02-28T01:37:09;26.90;;;16.67;;
9234;SDS011;4652;42.716;23.218;2023-02-28T02:08:04;22.60;;;13.63;;
9234;SDS011;4652;42.716;23.218;2023-02-28T02:14:51;24.20;;;14.77;;
9234;SDS011;4652;42.716;23.218;2023-02-28T02:36:25;24.30;;;15.47;;
9234;SDS011;4652;42.716;23.218;2023-02-28T02:43:13;24.13;;;14.30;;
9234;SDS011;4652;42.716;23.218;2023-02-28T02:50:02;22.37;;;14.17;;
9234;SDS011;4652;42.716;23.218;2023-02-28T02:56:50;32.03;;;16.43;;
9234;SDS011;4652;42.716;23.218;2023-02-28T03:03:33;46.93;;;17.30;;
9234;SDS011;4652;42.716;23.218;2023-02-28T03:10:27;45.60;;;17.20;;
9234;SDS011;4652;42.716;23.218;2023-02-28T03:17:20;59.23;;;17.23;;
9234;SDS011;4652;42.716;23.218;2023-02-28T03:24:13;57.17;;;16.30;;
9234;SDS011;4652;42.716;23.218;2023-02-28T03:31:00;83.17;;;15.20;;
9234;SDS011;4652;42.716;23.218;2023-02-28T03:37:52;83.33;;;14.90;;
9234;SDS011;4652;42.716;23.218;2023-02-28T03:44:39;75.90;;;15.53;;
9234;SDS011;4652;42.716;23.218;2023-02-28T03:51:24;85.43;;;17.83;;
9234;SDS011;4652;42.716;23.218;2023-02-28T03:58:13;58.57;;;16.17;;
9234;SDS011;4652;42.716;23.218;2023-02-28T04:05:02;62.67;;;16.63;;
9234;SDS011;4652;42.716;23.218;2023-02-28T04:11:44;57.13;;;16.77;;
9234;SDS011;4652;42.716;23.218;2023-02-28T04:18:32;59.17;;;17.03;;
9234;SDS011;4652;42.716;23.218;2023-02-28T04:25:14;80.60;;;17.33;;
9234;SDS011;4652;42.716;23.218;2023-02-28T04:31:56;66.43;;;17.17;;
9234;SDS011;4652;42.716;23.218;2023-02-28T04:38:40;78.90;;;19.10;;
9234;SDS011;4652;42.716;23.218;2023-02-28T04:45:22;57.60;;;18.30;;
9234;SDS011;4652;42.716;23.218;2023-02-28T04:52:04;65.93;;;19.10;;
9234;SDS011;4652;42.716;23.218;2023-02-28T04:58:49;59.27;;;16.43;;
9234;SDS011;4652;42.716;23.218;2023-02-28T05:05:33;94.20;;;17.30;;
9234;SDS011;4652;42.716;23.218;2023-02-28T05:12:15;32.27;;;16.10;;
9234;SDS011;4652;42.716;23.218;2023-02-28T05:18:58;33.40;;;18.83;;
9234;SDS011;4652;42.716;23.218;2023-02-28T05:25:40;38.57;;;20.30;;
9234;SDS011;4652;42.716;23.218;2023-02-28T05:32:22;32.57;;;17.83;;
9234;SDS011;4652;42.716;23.218;2023-02-28T05:39:06;30.93;;;17.47;;
9234;SDS011;4652;42.716;23.218;2023-02-28T05:45:52;36.00;;;20.40;;
9234;SDS011;4652;42.716;23.218;2023-02-28T05:52:34;41.90;;;20.03;;
9234;SDS011;4652;42.716;23.218;2023-02-28T05:59:17;42.27;;;17.83;;
9234;SDS011;4652;42.716;23.218;2023-02-28T06:05:59;70.87;;;18.97;;
9234;SDS011;4652;42.716;23.218;2023-02-28T06:12:42;56.70;;;19.23;;
9234;SDS011;4652;42.716;23.218;2023-02-28T06:19:25;75.53;;;19.77;;
9234;SDS011;4652;42.716;23.218;2023-02-28T06:26:08;64.17;;;19.63;;
9234;SDS011;4652;42.716;23.218;2023-02-28T06:32:50;36.60;;;18.10;;
9234;SDS011;4652;42.716;23.218;2023-02-28T06:39:34;59.67;;;21.50;;
9234;SDS011;4652;42.716;23.218;2023-02-28T06:46:16;45.67;;;19.20;;
9234;SDS011;4652;42.716;23.218;2023-02-28T06:52:59;49.13;;;20.57;;
9234;SDS011;4652;42.716;23.218;2023-02-28T06:59:42;41.17;;;19.47;;
9234;SDS011;4652;42.716;23.218;2023-02-28T07:06:24;46.67;;;22.97;;
9234;SDS011;4652;42.716;23.218;2023-02-28T07:13:07;45.00;;;23.07;;
9234;SDS011;4652;42.716;23.218;2023-02-28T07:19:51;44.77;;;22.47;;
9234;SDS011;4652;42.716;23.218;2023-02-28T07:26:33;48.27;;;23.27;;
9234;SDS011;4652;42.716;23.218;2023-02-28T07:33:15;45.20;;;23.67;;
9234;SDS011;4652;42.716;23.218;2023-02-28T07:39:59;46.60;;;25.00;;
9234;SDS011;4652;42.716;23.218;2023-02-28T07:46:41;42.37;;;24.03;;
9234;SDS011;4652;42.716;23.218;2023-02-28T07:53:23;43.20;;;23.13;;
9234;SDS011;4652;42.716;23.218;2023-02-28T08:00:08;42.00;;;23.00;;
9234;SDS011;4652;42.716;23.218;2023-02-28T08:31:53;51.05;;;28.98;;
9234;SDS011;4652;42.716;23.218;2023-02-28T08:38:35;51.60;;;29.40;;
9234;SDS011;4652;42.716;23.218;2023-02-28T08:45:18;63.70;;;38.03;;
9234;SDS011;4652;42.716;23.218;2023-02-28T08:52:01;52.20;;;28.13;;
9234;SDS011;4652;42.716;23.218;2023-02-28T08:58:43;48.23;;;29.47;;
9234;SDS011;4652;42.716;23.218;2023-02-28T09:05:26;65.20;;;40.80;;
9234;SDS011;4652;42.716;23.218;2023-02-28T09:12:10;55.13;;;28.70;;
9234;SDS011;4652;42.716;23.218;2023-02-28T09:18:52;50.10;;;27.27;;
9234;SDS011;4652;42.716;23.218;2023-02-28T09:25:35;61.30;;;38.20;;
9234;SDS011;4652;42.716;23.218;2023-02-28T09:32:19;50.27;;;28.60;;
9234;SDS011;4652;42.716;23.218;2023-02-28T09:39:01;49.23;;;29.37;;
9234;SDS011;4652;42.716;23.218;2023-02-28T09:45:44;57.00;;;30.63;;
9234;SDS011;4652;42.716;23.218;2023-02-28T09:52:34;46.40;;;27.33;;
9234;SDS011;4652;42.716;23.218;2023-02-28T09:59:21;40.37;;;25.47;;
9234;SDS011;4652;42.716;23.218;2023-02-28T10:06:21;47.73;;;27.80;;
9234;SDS011;4652;42.716;23.218;2023-02-28T10:13:14;42.27;;;27.87;;
9234;SDS011;4652;42.716;23.218;2023-02-28T10:20:02;46.27;;;35.00;;
9234;SDS011;4652;42.716;23.218;2023-02-28T10:26:52;46.57;;;24.97;;
9234;SDS011;4652;42.716;23.218;2023-02-28T10:33:39;41.07;;;27.13;;
9234;SDS011;4652;42.716;23.218;2023-02-28T10:40:26;39.40;;;27.23;;
9234;SDS011;4652;42.716;23.218;2023-02-28T10:47:13;43.93;;;26.27;;
9234;SDS011;4652;42.716;23.218;2023-02-28T10:53:59;38.97;;;25.40;;
9234;SDS011;4652;42.716;23.218;2023-02-28T11:00:41;44.07;;;29.17;;
9234;SDS011;4652;42.716;23.218;2023-02-28T11:07:23;21.37;;;13.20;;
9234;SDS011;4652;42.716;23.218;2023-02-28T11:14:17;19.13;;;12.67;;
9234;SDS011;4652;42.716;23.218;2023-02-28T11:21:02;24.03;;;13.17;;
9234;SDS011;4652;42.716;23.218;2023-02-28T11:27:47;25.37;;;13.67;;
9234;SDS011;4652;42.716;23.218;2023-02-28T11:34:31;22.17;;;13.77;;
9234;SDS011;4652;42.716;23.218;2023-02-28T11:41:21;26.37;;;15.10;;
9234;SDS011;4652;42.716;23.218;2023-02-28T11:48:17;30.93;;;15.87;;
9234;SDS011;4652;42.716;23.218;2023-02-28T11:55:09;22.37;;;11.70;;
9234;SDS011;4652;42.716;23.218;2023-02-28T12:02:03;32.20;;;15.93;;
9234;SDS011;4652;42.716;23.218;2023-02-28T12:09:02;23.90;;;13.03;;
9234;SDS011;4652;42.716;23.218;2023-02-28T12:23:21;25.07;;;12.60;;
9234;SDS011;4652;42.716;23.218;2023-02-28T12:30:19;23.73;;;14.40;;
9234;SDS011;4652;42.716;23.218;2023-02-28T12:37:07;21.70;;;12.50;;
9234;SDS011;4652;42.716;23.218;2023-02-28T12:43:58;21.20;;;11.47;;
9234;SDS011;4652;42.716;23.218;2023-02-28T12:50:44;24.67;;;11.37;;
9234;SDS011;4652;42.716;23.218;2023-02-28T12:57:28;23.87;;;11.33;;
9234;SDS011;4652;42.716;23.218;2023-02-28T13:04:32;19.70;;;9.63;;
9234;SDS011;4652;42.716;23.218;2023-02-28T13:11:28;24.33;;;10.90;;
9234;SDS011;4652;42.716;23.218;2023-02-28T13:18:30;20.70;;;10.27;;
9234;SDS011;4652;42.716;23.218;2023-02-28T13:32:33;19.33;;;10.33;;
9234;SDS011;4652;42.716;23.218;2023-02-28T13:46:29;20.67;;;10.43;;
9234;SDS011;4652;42.716;23.218;2023-02-28T13:53:19;22.37;;;10.77;;
9234;SDS011;4652;42.716;23.218;2023-02-28T14:08:05;16.43;;;8.67;;
9234;SDS011;4652;42.716;23.218;2023-02-28T14:14:55;21.30;;;10.90;;
9234;SDS011;4652;42.716;23.218;2023-02-28T14:21:38;23.33;;;12.53;;
9234;SDS011;4652;42.716;23.218;2023-02-28T14:28:28;15.43;;;7.37;;
9234;SDS011;4652;42.716;23.218;2023-02-28T14:35:29;22.53;;;10.87;;
9234;SDS011;4652;42.716;23.218;2023-02-28T14:42:28;17.97;;;10.40;;
9234;SDS011;4652;42.716;23.218;2023-02-28T14:49:15;21.17;;;10.67;;
9234;SDS011;4652;42.716;23.218;2023-02-28T14:56:00;24.23;;;12.20;;
9234;SDS011;4652;42.716;23.218;2023-02-28T15:02:42;15.63;;;9.10;;
9234;SDS011;4652;42.716;23.218;2023-02-28T15:09:26;19.77;;;9.50;;
9234;SDS011;4652;42.716;23.218;2023-02-28T15:16:10;16.20;;;9.00;;
9234;SDS011;4652;42.716;23.218;2023-02-28T15:22:55;22.43;;;12.13;;
9234;SDS011;4652;42.716;23.218;2023-02-28T15:29:43;23.50;;;12.60;;
9234;SDS011;4652;42.716;23.218;2023-02-28T15:36:28;27.77;;;14.03;;
9234;SDS011;4652;42.716;23.218;2023-02-28T15:43:14;45.30;;;23.70;;
9234;SDS011;4652;42.716;23.218;2023-02-28T15:49:59;21.77;;;12.23;;
9234;SDS011;4652;42.716;23.218;2023-02-28T15:56:43;32.23;;;17.63;;
9234;SDS011;4652;42.716;23.218;2023-02-28T16:03:27;15.37;;;9.10;;
9234;SDS011;4652;42.716;23.218;2023-02-28T16:10:27;31.20;;;19.40;;
9234;SDS011;4652;42.716;23.218;2023-02-28T16:17:13;47.53;;;30.90;;
9234;SDS011;4652;42.716;23.218;2023-02-28T16:24:01;26.67;;;14.93;;
9234;SDS011;4652;42.716;23.218;2023-02-28T16:30:44;20.80;;;12.73;;
9234;SDS011;4652;42.716;23.218;2023-02-28T16:37:26;17.70;;;10.73;;
9234;SDS011;4652;42.716;23.218;2023-02-28T16:44:09;26.43;;;16.37;;
9234;SDS011;4652;42.716;23.218;2023-02-28T16:50:56;30.60;;;17.27;;
9234;SDS011;4652;42.716;23.218;2023-02-28T16:57:38;28.17;;;18.23;;
9234;SDS011;4652;42.716;23.218;2023-02-28T17:04:21;19.33;;;13.10;;
9234;SDS011;4652;42.716;23.218;2023-02-28T17:11:04;18.03;;;11.47;;
9234;SDS011;4652;42.716;23.218;2023-02-28T17:17:47;19.43;;;12.03;;
9234;SDS011;4652;42.716;23.218;2023-02-28T17:24:29;13.57;;;7.73;;
9234;SDS011;4652;42.716;23.218;2023-02-28T17:31:13;19.60;;;10.33;;
9234;SDS011;4652;42.716;23.218;2023-02-28T17:37:55;16.77;;;10.53;;
9234;SDS011;4652;42.716;23.218;2023-02-28T17:44:37;13.37;;;9.20;;
9234;SDS011;4652;42.716;23.218;2023-02-28T17:51:21;18.77;;;11.30;;
9234;SDS011;4652;42.716;23.218;2023-02-28T17:58:04;19.37;;;10.20;;
9234;SDS011;4652;42.716;23.218;2023-02-28T18:04:46;16.93;;;9.93;;
9234;SDS011;4652;42.716;23.218;2023-02-28T18:11:29;23.93;;;14.23;;
9234;SDS011;4652;42.716;23.218;2023-02-28T18:18:21;25.47;;;16.07;;
9234;SDS011;4652;42.716;23.218;2023-02-28T18:25:04;13.13;;;8.57;;
9234;SDS011;4652;42.716;23.218;2023-02-28T18:31:49;19.07;;;10.60;;
9234;SDS011;4652;42.716;23.218;2023-02-28T18:38:32;15.47;;;9.90;;
9234;SDS011;4652;42.716;23.218;2023-02-28T18:45:14;15.97;;;9.67;;
9234;SDS011;4652;42.716;23.218;2023-02-28T18:51:58;10.47;;;6.57;;
9234;SDS011;4652;42.716;23.218;2023-02-28T18:58:40;22.97;;;10.73;;
9234;SDS011;4652;42.716;23.218;2023-02-28T19:05:22;19.83;;;12.13;;
9234;SDS011;4652;42.716;23.218;2023-02-28T19:12:06;14.60;;;10.20;;
9234;SDS011;4652;42.716;23.218;2023-02-28T19:18:48;23.17;;;12.43;;
9234;SDS011;4652;42.716;23.218;2023-02-28T19:25:30;16.97;;;10.47;;
9234;SDS011;4652;42.716;23.218;2023-02-28T19:32:14;20.10;;;10.00;;
9234;SDS011;4652;42.716;23.218;2023-02-28T19:38:57;12.43;;;9.33;;
9234;SDS011;4652;42.716;23.218;2023-02-28T19:45:39;16.10;;;9.53;;
9234;SDS011;4652;42.716;23.218;2023-02-28T19:52:22;17.67;;;10.93;;
9234;SDS011;4652;42.716;23.218;2023-02-28T19:59:05;14.57;;;8.37;;
9234;SDS011;4652;42.716;23.218;2023-02-28T20:25:13;15.93;;;9.90;;
9234;SDS011;4652;42.716;23.218;2023-02-28T20:31:56;21.20;;;12.33;;
9234;SDS011;4652;42.716;23.218;2023-02-28T20:38:38;13.37;;;9.50;;
9234;SDS011;4652;42.716;23.218;2023-02-28T20:45:22;11.73;;;8.83;;
9234;SDS011;4652;42.716;23.218;2023-02-28T20:52:04;15.90;;;11.17;;
9234;SDS011;4652;42.716;23.218;2023-02-28T20:58:47;12.43;;;9.47;;
9234;SDS011;4652;42.716;23.218;2023-02-28T21:05:32;13.77;;;10.77;;
9234;SDS011;4652;42.716;23.218;2023-02-28T21:12:14;12.27;;;9.43;;
9234;SDS011;4652;42.716;23.218;2023-02-28T21:18:58;15.23;;;11.30;;
9234;SDS011;4652;42.716;23.218;2023-02-28T21:25:44;12.77;;;9.47;;
9234;SDS011;4652;42.716;23.218;2023-02-28T21:32:26;13.33;;;8.97;;
9234;SDS011;4652;42.716;23.218;2023-02-28T21:39:10;12.93;;;9.10;;
